sensor_id;sensor_type;location;lat;lon;timestamp;pressure;altitude;pressure_sealevel;temperature;humidity
44001;BME280;29660;42.892;24.710;2024-02-23T00:03:25;96591.53;;;4.73;100.00
44001;BME280;29660;42.892;24.710;2024-02-23T00:08:48;96576.44;;;4.58;100.00
44001;BME280;29660;42.892;24.710;2024-02-23T00:14:11;96689.78;;;5.27;100.00
44001;BME280;29660;42.892;24.710;2024-02-23T00:19:33;96669.41;;;5.28;100.00
44001;BME280;29660;42.892;24.710;2024-02-23T00:24:55;96672.84;;;5.28;100.00
44001;BME280;29660;42.892;24.710;2024-02-23T00:30:17;96669.41;;;5.28;100.00
44001;BME280;29660;42.892;24.710;2024-02-23T00:35:39;96592.38;;;4.88;100.00
44001;BME280;29660;42.892;24.710;2024-02-23T00:41:01;96648.78;;;5.25;100.00
44001;BME280;29660;42.892;24.710;2024-02-23T00:46:24;96659.34;;;5.25;100.00
44001;BME280;29660;42.892;24.710;2024-02-23T00:51:46;96647.75;;;5.31;100.00
44001;BME280;29660;42.892;24.710;2024-02-23T00:57:08;96640.84;;;5.30;100.00
44001;BME280;29660;42.892;24.710;2024-02-23T01:02:31;96657.78;;;5.34;100.00
44001;BME280;29660;42.892;24.710;2024-02-23T01:07:55;96650.94;;;5.43;100.00
44001;BME280;29660;42.892;24.710;2024-02-23T01:13:17;96646.97;;;5.40;100.00
44001;BME280;29660;42.892;24.710;2024-02-23T01:18:39;96636.09;;;5.32;100.00
44001;BME280;29660;42.892;24.710;2024-02-23T01:24:01;96630.28;;;5.30;100.00
44001;BME280;29660;42.892;24.710;2024-02-23T01:29:25;96543.22;;;4.72;100.00
44001;BME280;29660;42.892;24.710;2024-02-23T01:34:48;96629.47;;;5.24;100.00
44001;BME280;29660;42.892;24.710;2024-02-23T01:40:10;96629.44;;;5.09;100.00
44001;BME280;29660;42.892;24.710;2024-02-23T01:45:32;96526.91;;;4.23;100.00
44001;BME280;29660;42.892;24.710;2024-02-23T01:50:55;96549.66;;;4.34;100.00
44001;BME280;29660;42.892;24.710;2024-02-23T01:56:18;96640.69;;;4.79;100.00
44001;BME280;29660;42.892;24.710;2024-02-23T02:01:43;96615.25;;;4.62;100.00
44001;BME280;29660;42.892;24.710;2024-02-23T02:07:06;96627.41;;;4.63;100.00
44001;BME280;29660;42.892;24.710;2024-02-23T02:12:28;96616.75;;;4.43;100.00
44001;BME280;29660;42.892;24.710;2024-02-23T02:17:50;96621.47;;;4.36;100.00
44001;BME280;29660;42.892;24.710;2024-02-23T02:23:13;96587.97;;;3.94;100.00
44001;BME280;29660;42.892;24.710;2024-02-23T02:28:35;96504.69;;;3.24;100.00
44001;BME280;29660;42.892;24.710;2024-02-23T02:33:57;96648.22;;;4.07;100.00
44001;BME280;29660;42.892;24.710;2024-02-23T02:39:19;96645.00;;;4.00;100.00
44001;BME280;29660;42.892;24.710;2024-02-23T02:44:41;96648.38;;;3.90;100.00
44001;BME280;29660;42.892;24.710;2024-02-23T02:50:04;96658.41;;;3.93;100.00
44001;BME280;29660;42.892;24.710;2024-02-23T02:55:28;96650.53;;;3.99;100.00
44001;BME280;29660;42.892;24.710;2024-02-23T03:00:50;96649.72;;;3.93;100.00
44001;BME280;29660;42.892;24.710;2024-02-23T03:06:13;96664.03;;;4.02;100.00
44001;BME280;29660;42.892;24.710;2024-02-23T03:11:35;96659.31;;;4.09;100.00
44001;BME280;29660;42.892;24.710;2024-02-23T03:16:58;96654.59;;;4.16;100.00
44001;BME280;29660;42.892;24.710;2024-02-23T03:22:20;96645.16;;;4.21;100.00
44001;BME280;29660;42.892;24.710;2024-02-23T03:27:42;96641.16;;;4.18;100.00
44001;BME280;29660;42.892;24.710;2024-02-23T03:33:04;96639.31;;;4.18;100.00
44001;BME280;29660;42.892;24.710;2024-02-23T03:38:27;96515.25;;;3.29;100.00
44001;BME280;29660;42.892;24.710;2024-02-23T03:43:53;96624.84;;;3.89;100.00
44001;BME280;29660;42.892;24.710;2024-02-23T03:49:15;96540.84;;;3.33;100.00
44001;BME280;29660;42.892;24.710;2024-02-23T03:54:37;96512.56;;;3.18;100.00
44001;BME280;29660;42.892;24.710;2024-02-23T03:59:59;96649.94;;;3.91;100.00
44001;BME280;29660;42.892;24.710;2024-02-23T04:05:32;96651.81;;;3.96;100.00
44001;BME280;29660;42.892;24.710;2024-02-23T04:10:54;96647.28;;;3.86;100.00
44001;BME280;29660;42.892;24.710;2024-02-23T04:16:17;96659.09;;;3.79;100.00
44001;BME280;29660;42.892;24.710;2024-02-23T04:21:39;96537.88;;;2.92;100.00
44001;BME280;29660;42.892;24.710;2024-02-23T04:27:02;96652.59;;;3.59;100.00
44001;BME280;29660;42.892;24.710;2024-02-23T04:32:24;96653.13;;;3.61;100.00
44001;BME280;29660;42.892;24.710;2024-02-23T04:37:46;96655.72;;;3.56;100.00
44001;BME280;29660;42.892;24.710;2024-02-23T04:43:10;96627.38;;;3.41;100.00
44001;BME280;29660;42.892;24.710;2024-02-23T04:48:33;96644.53;;;3.44;100.00
44001;BME280;29660;42.892;24.710;2024-02-23T04:53:55;96653.03;;;3.51;100.00
44001;BME280;29660;42.892;24.710;2024-02-23T04:59:17;96620.81;;;3.17;100.00
44001;BME280;29660;42.892;24.710;2024-02-23T05:04:39;96660.91;;;3.46;100.00
44001;BME280;29660;42.892;24.710;2024-02-23T05:10:01;96654.09;;;3.50;100.00
44001;BME280;29660;42.892;24.710;2024-02-23T05:15:23;96657.25;;;3.52;100.00
44001;BME280;29660;42.892;24.710;2024-02-23T05:20:46;96650.31;;;3.41;100.00
44001;BME280;29660;42.892;24.710;2024-02-23T05:26:08;96536.19;;;2.59;100.00
44001;BME280;29660;42.892;24.710;2024-02-23T05:31:46;96685.63;;;3.40;100.00
44001;BME280;29660;42.892;24.710;2024-02-23T05:37:09;96682.88;;;3.30;100.00
44001;BME280;29660;42.892;24.710;2024-02-23T05:42:31;96697.22;;;3.39;100.00
44001;BME280;29660;42.892;24.710;2024-02-23T05:47:56;96694.13;;;3.47;100.00
44001;BME280;29660;42.892;24.710;2024-02-23T05:53:18;96703.09;;;3.46;100.00
44001;BME280;29660;42.892;24.710;2024-02-23T05:58:41;96644.78;;;3.15;100.00
44001;BME280;29660;42.892;24.710;2024-02-23T06:04:03;96674.94;;;3.52;100.00
44001;BME280;29660;42.892;24.710;2024-02-23T06:09:25;96701.88;;;3.86;100.00
44001;BME280;29660;42.892;24.710;2024-02-23T06:14:47;96698.19;;;3.87;100.00
44001;BME280;29660;42.892;24.710;2024-02-23T06:20:10;96708.84;;;3.97;100.00
44001;BME280;29660;42.892;24.710;2024-02-23T06:25:32;96710.88;;;4.22;100.00
44001;BME280;29660;42.892;24.710;2024-02-23T06:30:54;96712.88;;;4.42;100.00
44001;BME280;29660;42.892;24.710;2024-02-23T06:36:17;96721.50;;;4.75;100.00
44001;BME280;29660;42.892;24.710;2024-02-23T06:41:40;96686.94;;;4.86;100.00
44001;BME280;29660;42.892;24.710;2024-02-23T06:47:02;96729.22;;;5.39;100.00
44001;BME280;29660;42.892;24.710;2024-02-23T06:52:25;96373.59;;;3.51;100.00
44001;BME280;29660;42.892;24.710;2024-02-23T06:57:48;96598.28;;;5.36;100.00
44001;BME280;29660;42.892;24.710;2024-02-23T07:03:10;96492.25;;;5.12;100.00
44001;BME280;29660;42.892;24.710;2024-02-23T07:08:33;96685.59;;;6.69;100.00
44001;BME280;29660;42.892;24.710;2024-02-23T07:13:55;96697.91;;;7.20;99.22
44001;BME280;29660;42.892;24.710;2024-02-23T07:19:17;96637.91;;;7.29;97.27
44001;BME280;29660;42.892;24.710;2024-02-23T07:24:40;96688.31;;;8.07;95.03
44001;BME280;29660;42.892;24.710;2024-02-23T07:30:03;96670.47;;;8.47;94.40
44001;BME280;29660;42.892;24.710;2024-02-23T07:35:26;96622.78;;;8.80;88.37
44001;BME280;29660;42.892;24.710;2024-02-23T07:40:49;96673.88;;;9.63;85.55
44001;BME280;29660;42.892;24.710;2024-02-23T07:46:12;96673.81;;;10.19;81.38
44001;BME280;29660;42.892;24.710;2024-02-23T07:51:35;96535.44;;;9.95;73.67
44001;BME280;29660;42.892;24.710;2024-02-23T07:56:57;96627.91;;;11.10;71.26
44001;BME280;29660;42.892;24.710;2024-02-23T08:02:19;96643.00;;;11.65;66.48
44001;BME280;29660;42.892;24.710;2024-02-23T08:07:41;96604.28;;;11.98;61.04
44001;BME280;29660;42.892;24.710;2024-02-23T08:13:03;96633.63;;;12.66;58.25
44001;BME280;29660;42.892;24.710;2024-02-23T08:18:26;96620.50;;;13.04;53.20
44001;BME280;29660;42.892;24.710;2024-02-23T08:23:48;96525.66;;;12.79;50.62
44001;BME280;29660;42.892;24.710;2024-02-23T08:29:11;96511.53;;;13.22;48.25
44001;BME280;29660;42.892;24.710;2024-02-23T08:34:33;96606.97;;;14.22;42.29
44001;BME280;29660;42.892;24.710;2024-02-23T08:39:56;96615.72;;;14.66;43.42
44001;BME280;29660;42.892;24.710;2024-02-23T08:45:18;96613.69;;;14.92;43.47
44001;BME280;29660;42.892;24.710;2024-02-23T08:50:41;96590.13;;;14.98;41.61
44001;BME280;29660;42.892;24.710;2024-02-23T08:56:03;96609.44;;;15.42;42.68
44001;BME280;29660;42.892;24.710;2024-02-23T09:01:26;96609.00;;;15.61;41.04
44001;BME280;29660;42.892;24.710;2024-02-23T09:06:48;96614.47;;;15.73;40.92
44001;BME280;29660;42.892;24.710;2024-02-23T09:12:12;96612.88;;;15.93;40.20
44001;BME280;29660;42.892;24.710;2024-02-23T09:17:37;96620.59;;;15.94;41.05
44001;BME280;29660;42.892;24.710;2024-02-23T09:23:03;96628.28;;;16.17;39.13
44001;BME280;29660;42.892;24.710;2024-02-23T09:28:25;96580.06;;;16.00;38.88
44001;BME280;29660;42.892;24.710;2024-02-23T09:33:47;96623.72;;;16.30;41.93
44001;BME280;29660;42.892;24.710;2024-02-23T09:39:12;96599.09;;;16.40;40.59
44001;BME280;29660;42.892;24.710;2024-02-23T09:44:35;96578.22;;;16.25;39.98
44001;BME280;29660;42.892;24.710;2024-02-23T09:49:58;96604.16;;;16.66;40.14
44001;BME280;29660;42.892;24.710;2024-02-23T09:55:22;96601.53;;;16.90;40.88
44001;BME280;29660;42.892;24.710;2024-02-23T10:00:45;96599.03;;;16.98;40.20
44001;BME280;29660;42.892;24.710;2024-02-23T10:06:07;96593.19;;;16.71;37.83
44001;BME280;29660;42.892;24.710;2024-02-23T10:11:29;96596.22;;;17.18;39.02
44001;BME280;29660;42.892;24.710;2024-02-23T10:16:51;96586.56;;;17.30;39.02
44001;BME280;29660;42.892;24.710;2024-02-23T10:22:15;96588.03;;;17.15;35.78
44001;BME280;29660;42.892;24.710;2024-02-23T10:27:38;96572.94;;;17.38;36.81
44001;BME280;29660;42.892;24.710;2024-02-23T10:33:03;96473.25;;;16.98;37.78
44001;BME280;29660;42.892;24.710;2024-02-23T10:38:27;96548.78;;;17.82;38.65
44001;BME280;29660;42.892;24.710;2024-02-23T10:43:51;96476.31;;;17.53;37.89
44001;BME280;29660;42.892;24.710;2024-02-23T10:49:14;96551.25;;;18.19;36.82
44001;BME280;29660;42.892;24.710;2024-02-23T10:54:38;96551.63;;;18.33;37.39
44001;BME280;29660;42.892;24.710;2024-02-23T11:00:02;96462.25;;;17.75;35.48
44001;BME280;29660;42.892;24.710;2024-02-23T11:05:28;96492.69;;;18.20;37.01
44001;BME280;29660;42.892;24.710;2024-02-23T11:10:50;96545.28;;;18.57;34.82
44001;BME280;29660;42.892;24.710;2024-02-23T11:16:22;96536.44;;;17.97;33.71
44001;BME280;29660;42.892;24.710;2024-02-23T11:21:52;96528.97;;;18.22;35.45
44001;BME280;29660;42.892;24.710;2024-02-23T11:27:15;96518.88;;;18.51;34.85
44001;BME280;29660;42.892;24.710;2024-02-23T11:32:45;96478.91;;;18.40;36.41
44001;BME280;29660;42.892;24.710;2024-02-23T11:38:09;96512.34;;;18.83;35.80
44001;BME280;29660;42.892;24.710;2024-02-23T11:43:34;96501.97;;;18.85;34.15
44001;BME280;29660;42.892;24.710;2024-02-23T11:48:56;96495.31;;;18.99;34.21
44001;BME280;29660;42.892;24.710;2024-02-23T11:54:19;96507.16;;;19.10;36.55
44001;BME280;29660;42.892;24.710;2024-02-23T11:59:41;96504.94;;;19.16;36.03
44001;BME280;29660;42.892;24.710;2024-02-23T12:05:03;96501.78;;;19.13;35.90
44001;BME280;29660;42.892;24.710;2024-02-23T12:10:26;96496.00;;;18.96;35.54
44001;BME280;29660;42.892;24.710;2024-02-23T12:15:52;96482.66;;;19.03;36.15
44001;BME280;29660;42.892;24.710;2024-02-23T12:21:14;96439.53;;;18.71;35.56
44001;BME280;29660;42.892;24.710;2024-02-23T12:26:36;96493.09;;;19.04;36.52
44001;BME280;29660;42.892;24.710;2024-02-23T12:32:06;96274.78;;;17.65;35.79
44001;BME280;29660;42.892;24.710;2024-02-23T12:37:34;96465.63;;;18.83;35.72
44001;BME280;29660;42.892;24.710;2024-02-23T12:42:57;96479.94;;;18.83;34.86
44001;BME280;29660;42.892;24.710;2024-02-23T12:48:19;96380.03;;;18.17;35.69
44001;BME280;29660;42.892;24.710;2024-02-23T12:53:43;96418.00;;;18.24;34.39
44001;BME280;29660;42.892;24.710;2024-02-23T12:59:06;96451.53;;;18.58;35.61
44001;BME280;29660;42.892;24.710;2024-02-23T13:04:29;96491.34;;;18.77;35.84
44001;BME280;29660;42.892;24.710;2024-02-23T13:09:51;96134.28;;;16.40;36.07
44001;BME280;29660;42.892;24.710;2024-02-23T13:15:13;96485.25;;;18.64;36.51
44001;BME280;29660;42.892;24.710;2024-02-23T13:20:40;96459.06;;;18.49;35.58
44001;BME280;29660;42.892;24.710;2024-02-23T13:26:06;96459.34;;;18.44;36.46
44001;BME280;29660;42.892;24.710;2024-02-23T13:31:28;96466.81;;;18.34;36.20
44001;BME280;29660;42.892;24.710;2024-02-23T13:36:50;96172.69;;;16.53;36.04
44001;BME280;29660;42.892;24.710;2024-02-23T13:42:14;96465.63;;;18.16;35.73
44001;BME280;29660;42.892;24.710;2024-02-23T13:47:36;96482.84;;;18.27;35.79
44001;BME280;29660;42.892;24.710;2024-02-23T13:52:58;96464.13;;;18.03;36.21
44001;BME280;29660;42.892;24.710;2024-02-23T13:58:21;96521.75;;;18.10;36.06
44001;BME280;29660;42.892;24.710;2024-02-23T14:03:43;96492.84;;;18.11;35.68
44001;BME280;29660;42.892;24.710;2024-02-23T14:09:05;96453.94;;;17.80;35.45
44001;BME280;29660;42.892;24.710;2024-02-23T14:14:27;96478.91;;;17.93;35.99
44001;BME280;29660;42.892;24.710;2024-02-23T14:19:49;96489.25;;;17.91;35.47
44001;BME280;29660;42.892;24.710;2024-02-23T14:25:12;96488.50;;;17.62;35.87
44001;BME280;29660;42.892;24.710;2024-02-23T14:30:35;96490.41;;;17.62;35.92
44001;BME280;29660;42.892;24.710;2024-02-23T14:35:57;96496.75;;;17.54;35.51
44001;BME280;29660;42.892;24.710;2024-02-23T14:41:19;96508.56;;;17.49;36.02
44001;BME280;29660;42.892;24.710;2024-02-23T14:46:41;96494.09;;;17.41;36.41
44001;BME280;29660;42.892;24.710;2024-02-23T14:52:05;96495.44;;;17.35;36.07
44001;BME280;29660;42.892;24.710;2024-02-23T14:57:27;96502.44;;;17.24;36.76
44001;BME280;29660;42.892;24.710;2024-02-23T15:02:49;96358.38;;;16.13;36.18
44001;BME280;29660;42.892;24.710;2024-02-23T15:08:11;96508.69;;;17.00;36.44
44001;BME280;29660;42.892;24.710;2024-02-23T15:13:33;96509.84;;;16.87;36.92
44001;BME280;29660;42.892;24.710;2024-02-23T15:18:56;96409.72;;;16.08;36.61
44001;BME280;29660;42.892;24.710;2024-02-23T15:24:18;96474.16;;;16.41;37.65
44001;BME280;29660;42.892;24.710;2024-02-23T15:29:42;96545.63;;;16.51;37.80
44001;BME280;29660;42.892;24.710;2024-02-23T15:35:05;96409.63;;;15.59;37.94
44001;BME280;29660;42.892;24.710;2024-02-23T15:40:28;96520.03;;;16.20;37.87
44001;BME280;29660;42.892;24.710;2024-02-23T15:45:50;96404.59;;;15.24;38.01
44001;BME280;29660;42.892;24.710;2024-02-23T15:51:12;96529.72;;;15.88;39.04
44001;BME280;29660;42.892;24.710;2024-02-23T15:56:40;96533.22;;;15.67;39.60
44001;BME280;29660;42.892;24.710;2024-02-23T16:02:02;96423.47;;;14.82;40.16
44001;BME280;29660;42.892;24.710;2024-02-23T16:07:25;96528.44;;;15.31;40.46
44001;BME280;29660;42.892;24.710;2024-02-23T16:12:50;96541.28;;;15.26;41.17
44001;BME280;29660;42.892;24.710;2024-02-23T16:18:13;96553.84;;;15.13;41.38
44001;BME280;29660;42.892;24.710;2024-02-23T16:23:35;96554.91;;;15.00;41.93
44001;BME280;29660;42.892;24.710;2024-02-23T16:28:57;96549.78;;;14.86;42.20
44001;BME280;29660;42.892;24.710;2024-02-23T16:34:20;96555.16;;;14.77;42.21
44001;BME280;29660;42.892;24.710;2024-02-23T16:39:42;96560.44;;;14.65;42.31
44001;BME280;29660;42.892;24.710;2024-02-23T16:45:04;96405.19;;;13.48;42.73
44001;BME280;29660;42.892;24.710;2024-02-23T16:50:27;96568.59;;;14.39;43.25
44001;BME280;29660;42.892;24.710;2024-02-23T16:55:49;96579.88;;;14.15;44.08
44001;BME280;29660;42.892;24.710;2024-02-23T17:01:11;96549.84;;;13.57;45.44
44001;BME280;29660;42.892;24.710;2024-02-23T17:06:34;96524.44;;;13.20;46.05
44001;BME280;29660;42.892;24.710;2024-02-23T17:11:56;96601.06;;;13.38;46.85
44001;BME280;29660;42.892;24.710;2024-02-23T17:17:18;96597.69;;;13.15;47.23
44001;BME280;29660;42.892;24.710;2024-02-23T17:22:42;96568.16;;;12.72;48.10
44001;BME280;29660;42.892;24.710;2024-02-23T17:28:04;96367.94;;;11.11;49.26
44001;BME280;29660;42.892;24.710;2024-02-23T17:33:26;96613.41;;;12.51;49.90
44001;BME280;29660;42.892;24.710;2024-02-23T17:38:49;96609.25;;;12.36;50.50
44001;BME280;29660;42.892;24.710;2024-02-23T17:44:12;96389.50;;;10.70;51.10
44001;BME280;29660;42.892;24.710;2024-02-23T17:49:34;96616.69;;;12.17;51.74
44001;BME280;29660;42.892;24.710;2024-02-23T17:54:56;96499.25;;;11.67;51.82
44001;BME280;29660;42.892;24.710;2024-02-23T18:00:19;96491.38;;;11.39;51.90
44001;BME280;29660;42.892;24.710;2024-02-23T18:05:41;96611.66;;;11.93;54.08
44001;BME280;29660;42.892;24.710;2024-02-23T18:11:03;96534.47;;;11.24;54.44
44001;BME280;29660;42.892;24.710;2024-02-23T18:16:26;96626.47;;;11.63;54.99
44001;BME280;29660;42.892;24.710;2024-02-23T18:21:49;96606.63;;;11.33;56.99
44001;BME280;29660;42.892;24.710;2024-02-23T18:27:11;96550.50;;;10.74;57.58
44001;BME280;29660;42.892;24.710;2024-02-23T18:32:33;96632.94;;;11.12;59.40
44001;BME280;29660;42.892;24.710;2024-02-23T18:37:56;96611.53;;;10.62;63.37
44001;BME280;29660;42.892;24.710;2024-02-23T18:43:19;96647.09;;;10.71;65.14
44001;BME280;29660;42.892;24.710;2024-02-23T18:48:41;96497.63;;;9.47;66.47
44001;BME280;29660;42.892;24.710;2024-02-23T18:54:03;96663.72;;;10.35;68.13
44001;BME280;29660;42.892;24.710;2024-02-23T18:59:26;96654.28;;;10.10;69.79
44001;BME280;29660;42.892;24.710;2024-02-23T19:05:00;96672.22;;;9.67;71.91
44001;BME280;29660;42.892;24.710;2024-02-23T19:10:23;96630.94;;;9.50;74.40
44001;BME280;29660;42.892;24.710;2024-02-23T19:15:45;96591.06;;;9.07;74.47
44001;BME280;29660;42.892;24.710;2024-02-23T19:21:08;96673.66;;;9.40;75.01
44001;BME280;29660;42.892;24.710;2024-02-23T19:26:30;96690.66;;;9.44;74.68
44001;BME280;29660;42.892;24.710;2024-02-23T19:31:53;96697.03;;;9.24;78.89
44001;BME280;29660;42.892;24.710;2024-02-23T19:37:16;96702.78;;;9.07;81.72
44001;BME280;29660;42.892;24.710;2024-02-23T19:42:39;96671.00;;;8.73;82.18
44001;BME280;29660;42.892;24.710;2024-02-23T19:48:01;96659.16;;;8.60;83.09
44001;BME280;29660;42.892;24.710;2024-02-23T19:53:24;96559.72;;;7.84;83.73
44001;BME280;29660;42.892;24.710;2024-02-23T19:58:46;96557.91;;;7.80;85.37
44001;BME280;29660;42.892;24.710;2024-02-23T20:04:08;96660.44;;;8.39;86.75
44001;BME280;29660;42.892;24.710;2024-02-23T20:09:30;96692.63;;;8.32;88.08
44001;BME280;29660;42.892;24.710;2024-02-23T20:14:52;96689.78;;;8.24;89.51
44001;BME280;29660;42.892;24.710;2024-02-23T20:20:18;96642.28;;;7.88;89.13
44001;BME280;29660;42.892;24.710;2024-02-23T20:25:43;96694.91;;;8.15;89.79
44001;BME280;29660;42.892;24.710;2024-02-23T20:31:05;96688.88;;;8.04;91.81
44001;BME280;29660;42.892;24.710;2024-02-23T20:36:28;96696.66;;;7.96;91.50
44001;BME280;29660;42.892;24.710;2024-02-23T20:41:50;96700.13;;;7.91;92.46
44001;BME280;29660;42.892;24.710;2024-02-23T20:47:12;96694.06;;;7.85;91.07
44001;BME280;29660;42.892;24.710;2024-02-23T20:52:35;96697.69;;;7.60;92.66
44001;BME280;29660;42.892;24.710;2024-02-23T20:57:57;96690.53;;;7.56;92.77
44001;BME280;29660;42.892;24.710;2024-02-23T21:03:19;96700.91;;;7.52;94.27
44001;BME280;29660;42.892;24.710;2024-02-23T21:08:42;96710.53;;;7.38;95.34
44001;BME280;29660;42.892;24.710;2024-02-23T21:14:05;96695.66;;;7.42;95.61
44001;BME280;29660;42.892;24.710;2024-02-23T21:19:27;96697.28;;;7.33;95.92
44001;BME280;29660;42.892;24.710;2024-02-23T21:24:49;96701.56;;;7.29;95.56
44001;BME280;29660;42.892;24.710;2024-02-23T21:30:11;96695.50;;;7.18;96.59
44001;BME280;29660;42.892;24.710;2024-02-23T21:35:33;96704.00;;;7.10;97.05
44001;BME280;29660;42.892;24.710;2024-02-23T21:40:57;96701.66;;;7.08;96.98
44001;BME280;29660;42.892;24.710;2024-02-23T21:46:20;96708.56;;;6.99;98.87
44001;BME280;29660;42.892;24.710;2024-02-23T21:51:42;96720.25;;;6.93;99.49
44001;BME280;29660;42.892;24.710;2024-02-23T21:57:04;96731.94;;;6.82;100.00
44001;BME280;29660;42.892;24.710;2024-02-23T22:02:28;96725.34;;;6.74;100.00
44001;BME280;29660;42.892;24.710;2024-02-23T22:07:52;96728.78;;;6.75;100.00
44001;BME280;29660;42.892;24.710;2024-02-23T22:13:14;96737.00;;;6.73;100.00
44001;BME280;29660;42.892;24.710;2024-02-23T22:18:36;96727.69;;;6.76;100.00
44001;BME280;29660;42.892;24.710;2024-02-23T22:23:58;96557.03;;;5.61;100.00
44001;BME280;29660;42.892;24.710;2024-02-23T22:29:23;96643.31;;;6.18;100.00
44001;BME280;29660;42.892;24.710;2024-02-23T22:34:46;96725.09;;;6.60;100.00
44001;BME280;29660;42.892;24.710;2024-02-23T22:40:10;96722.97;;;6.57;100.00
44001;BME280;29660;42.892;24.710;2024-02-23T22:45:35;96720.63;;;6.46;100.00
44001;BME280;29660;42.892;24.710;2024-02-23T22:50:57;96728.03;;;6.38;100.00
44001;BME280;29660;42.892;24.710;2024-02-23T22:56:19;96720.59;;;6.35;100.00
44001;BME280;29660;42.892;24.710;2024-02-23T23:01:41;96731.22;;;6.30;100.00
44001;BME280;29660;42.892;24.710;2024-02-23T23:07:04;96645.16;;;5.72;100.00
44001;BME280;29660;42.892;24.710;2024-02-23T23:12:27;96721.97;;;6.18;100.00
44001;BME280;29660;42.892;24.710;2024-02-23T23:17:49;96733.06;;;6.25;100.00
44001;BME280;29660;42.892;24.710;2024-02-23T23:23:13;96705.53;;;6.10;100.00
44001;BME280;29660;42.892;24.710;2024-02-23T23:28:35;96713.47;;;6.21;100.00
44001;BME280;29660;42.892;24.710;2024-02-23T23:33:57;96709.78;;;6.22;100.00
44001;BME280;29660;42.892;24.710;2024-02-23T23:39:21;96603.59;;;5.57;100.00
44001;BME280;29660;42.892;24.710;2024-02-23T23:44:43;96708.16;;;6.15;100.00
44001;BME280;29660;42.892;24.710;2024-02-23T23:50:06;96713.47;;;6.10;100.00
44001;BME280;29660;42.892;24.710;2024-02-23T23:55:28;96662.09;;;5.91;100.00
